createdAt,value
2022-08-31T00:00:12.770Z,16.60
2022-08-31T00:02:57.917Z,16.50
2022-08-31T00:05:25.156Z,16.60
2022-08-31T00:07:52.700Z,16.50
2022-08-31T00:10:32.315Z,16.50
2022-08-31T00:13:00.992Z,16.50
2022-08-31T00:15:30.112Z,16.50
2022-08-31T00:17:57.465Z,16.50
2022-08-31T00:20:33.589Z,16.50
2022-08-31T00:23:07.068Z,16.50
2022-08-31T00:25:34.634Z,16.50
2022-08-31T00:28:02.007Z,16.40
2022-08-31T00:30:29.977Z,16.40
2022-08-31T00:32:58.583Z,16.40
2022-08-31T00:35:27.575Z,16.30
2022-08-31T00:37:54.608Z,16.30
2022-08-31T00:40:21.492Z,16.30
2022-08-31T00:42:48.281Z,16.30
2022-08-31T00:45:15.148Z,16.20
2022-08-31T00:47:41.873Z,16.30
2022-08-31T00:50:13.092Z,16.30
2022-08-31T00:52:44.204Z,16.20
2022-08-31T00:55:21.434Z,16.20
2022-08-31T00:57:51.290Z,16.10
2022-08-31T01:00:21.587Z,16.20
2022-08-31T01:02:49.627Z,16.10
2022-08-31T01:05:17.242Z,16.10
2022-08-31T01:07:47.734Z,16.10
2022-08-31T01:10:16.613Z,16.00
2022-08-31T01:12:45.534Z,16.00
2022-08-31T01:15:14.473Z,16.00
2022-08-31T01:17:43.761Z,16.00
2022-08-31T01:20:29.013Z,15.90
2022-08-31T01:23:17.280Z,15.90
2022-08-31T01:25:45.991Z,15.90
2022-08-31T01:28:13.359Z,15.90
2022-08-31T01:30:41.172Z,15.90
2022-08-31T01:33:09.847Z,15.80
2022-08-31T01:35:45.052Z,15.90
2022-08-31T01:38:13.178Z,15.80
2022-08-31T01:40:49.252Z,15.80
2022-08-31T01:43:16.383Z,15.80
2022-08-31T01:45:43.464Z,15.80
2022-08-31T01:48:10.588Z,15.80
2022-08-31T01:50:37.685Z,15.70
2022-08-31T01:53:04.480Z,15.70
2022-08-31T01:55:31.881Z,15.70
2022-08-31T01:58:00.510Z,15.70
2022-08-31T02:00:46.226Z,15.70
2022-08-31T02:03:13.562Z,15.60
2022-08-31T02:05:40.837Z,15.60
2022-08-31T02:08:10.252Z,15.60
2022-08-31T02:10:38.094Z,15.60
2022-08-31T02:13:05.780Z,15.50
2022-08-31T02:15:38.415Z,15.60
2022-08-31T02:18:06.069Z,15.60
2022-08-31T02:20:32.777Z,15.60
2022-08-31T02:23:03.086Z,15.60
2022-08-31T02:25:32.852Z,15.60
2022-08-31T02:28:02.077Z,15.60
2022-08-31T02:30:29.208Z,15.60
2022-08-31T02:32:57.352Z,15.60
2022-08-31T02:35:24.306Z,15.50
2022-08-31T02:37:51.123Z,15.50
2022-08-31T02:40:17.915Z,15.50
2022-08-31T02:42:53.030Z,15.50
2022-08-31T02:45:24.693Z,15.40
2022-08-31T02:47:54.331Z,15.40
2022-08-31T02:50:28.120Z,15.40
2022-08-31T02:52:56.708Z,15.40
2022-08-31T02:55:27.636Z,15.40
2022-08-31T02:57:54.504Z,15.40
2022-08-31T03:00:23.263Z,15.30
2022-08-31T03:02:50.975Z,15.30
2022-08-31T03:05:18.339Z,15.30
2022-08-31T03:07:45.376Z,15.30
2022-08-31T03:10:14.677Z,15.30
2022-08-31T03:12:41.860Z,15.30
2022-08-31T03:15:10.839Z,15.20
2022-08-31T03:17:38.025Z,15.20
2022-08-31T03:20:08.726Z,15.20
2022-08-31T03:22:35.933Z,15.20
2022-08-31T03:25:04.999Z,15.10
2022-08-31T03:27:32.188Z,15.10
2022-08-31T03:30:00.196Z,15.10
2022-08-31T03:32:30.920Z,15.00
2022-08-31T03:35:00.215Z,15.00
2022-08-31T03:37:27.311Z,14.90
2022-08-31T03:39:57.988Z,14.90
2022-08-31T03:42:25.925Z,14.90
2022-08-31T03:44:54.776Z,14.90
2022-08-31T03:47:28.321Z,14.80
2022-08-31T03:49:58.944Z,14.80
2022-08-31T03:52:31.170Z,14.80
2022-08-31T03:55:08.196Z,14.80
2022-08-31T03:57:35.407Z,14.70
2022-08-31T04:00:04.021Z,14.70
2022-08-31T04:02:45.981Z,14.70
2022-08-31T04:05:44.315Z,14.70
2022-08-31T04:08:15.347Z,14.70
2022-08-31T04:10:48.104Z,14.70
2022-08-31T04:13:33.799Z,14.60
2022-08-31T04:16:21.694Z,14.60
2022-08-31T04:19:08.991Z,14.50
2022-08-31T04:21:44.566Z,14.50
2022-08-31T04:24:13.352Z,14.50
2022-08-31T04:26:41.163Z,14.50
2022-08-31T04:29:13.124Z,14.50
2022-08-31T04:31:40.586Z,14.50
2022-08-31T04:34:07.470Z,14.50
2022-08-31T04:36:35.814Z,14.40
2022-08-31T04:39:04.491Z,14.40
2022-08-31T04:41:33.108Z,14.40
2022-08-31T04:44:01.952Z,14.40
2022-08-31T04:46:35.572Z,14.40
2022-08-31T04:49:02.370Z,14.40
2022-08-31T04:51:31.628Z,14.40
2022-08-31T04:53:59.007Z,14.30
2022-08-31T04:56:29.614Z,14.40
2022-08-31T04:59:05.324Z,14.40
2022-08-31T05:01:42.457Z,14.30
2022-08-31T05:04:19.446Z,14.30
2022-08-31T05:06:47.321Z,14.20
2022-08-31T05:09:18.981Z,14.20
2022-08-31T05:11:50.390Z,14.20
2022-08-31T05:14:17.290Z,14.20
2022-08-31T05:16:51.287Z,14.10
2022-08-31T05:19:18.888Z,14.10
2022-08-31T05:21:46.591Z,14.20
2022-08-31T05:24:18.919Z,14.20
2022-08-31T05:26:49.432Z,14.20
2022-08-31T05:29:20.266Z,14.10
2022-08-31T05:31:52.046Z,14.10
2022-08-31T05:34:21.108Z,14.10
2022-08-31T05:36:52.957Z,14.10
2022-08-31T05:39:19.763Z,14.10
2022-08-31T05:41:47.660Z,14.00
2022-08-31T05:44:16.925Z,14.00
2022-08-31T05:46:44.443Z,14.10
2022-08-31T05:49:11.883Z,14.00
2022-08-31T05:51:40.167Z,14.00
2022-08-31T05:54:08.494Z,14.00
2022-08-31T05:56:35.407Z,14.00
2022-08-31T05:59:03.584Z,14.00
2022-08-31T06:01:35.477Z,14.00
2022-08-31T06:04:23.417Z,14.10
2022-08-31T06:06:50.484Z,14.10
2022-08-31T06:09:20.369Z,14.20
2022-08-31T06:11:49.487Z,14.20
2022-08-31T06:14:18.295Z,14.20
2022-08-31T06:16:46.477Z,14.30
2022-08-31T06:19:16.899Z,14.30
2022-08-31T06:21:51.752Z,14.30
2022-08-31T06:24:26.379Z,14.30
2022-08-31T06:26:58.877Z,14.40
2022-08-31T06:29:32.646Z,14.40
2022-08-31T06:32:06.018Z,14.40
2022-08-31T06:34:33.623Z,14.40
2022-08-31T06:37:07.969Z,14.50
2022-08-31T06:39:56.242Z,14.50
2022-08-31T06:43:01.689Z,14.50
2022-08-31T06:45:48.701Z,14.60
2022-08-31T06:48:35.164Z,14.60
2022-08-31T06:51:04.705Z,14.60
2022-08-31T06:53:31.495Z,14.60
2022-08-31T06:56:20.103Z,14.70
2022-08-31T06:59:27.725Z,14.80
2022-08-31T07:02:27.611Z,14.90
2022-08-31T07:04:54.311Z,14.90
2022-08-31T07:07:21.003Z,15.00
2022-08-31T07:09:48.853Z,15.10
2022-08-31T07:12:16.053Z,15.20
2022-08-31T07:14:50.110Z,15.30
2022-08-31T07:17:23.244Z,15.30
2022-08-31T07:19:50.286Z,15.40
2022-08-31T07:22:18.116Z,15.50
2022-08-31T07:24:47.599Z,15.60
2022-08-31T07:27:18.211Z,15.70
2022-08-31T07:29:52.487Z,15.80
2022-08-31T07:32:19.920Z,15.90
2022-08-31T07:34:57.319Z,15.90
2022-08-31T07:38:01.130Z,16.00
2022-08-31T07:40:49.651Z,16.10
2022-08-31T07:43:16.845Z,16.20
2022-08-31T07:45:44.658Z,16.20
2022-08-31T07:48:17.973Z,16.30
2022-08-31T07:51:03.652Z,16.40
2022-08-31T07:53:47.564Z,16.40
2022-08-31T07:56:25.945Z,16.50
2022-08-31T07:59:15.018Z,16.60
2022-08-31T08:01:43.664Z,16.70
2022-08-31T08:04:17.155Z,16.80
2022-08-31T08:07:11.237Z,16.90
2022-08-31T08:09:43.900Z,17.10
2022-08-31T08:12:47.109Z,17.20
2022-08-31T08:15:37.194Z,17.30
2022-08-31T08:18:25.868Z,17.40
2022-08-31T08:20:57.027Z,17.60
2022-08-31T08:23:28.839Z,17.70
2022-08-31T08:26:22.838Z,17.80
2022-08-31T08:29:08.141Z,17.90
2022-08-31T08:31:41.819Z,18.10
2022-08-31T08:34:08.975Z,18.20
2022-08-31T08:36:36.845Z,18.20
2022-08-31T08:39:08.269Z,18.40
2022-08-31T08:41:39.823Z,18.50
2022-08-31T08:44:11.320Z,18.60
2022-08-31T08:46:49.546Z,18.70
2022-08-31T08:49:30.647Z,18.80
2022-08-31T08:52:03.675Z,18.90
2022-08-31T08:54:38.777Z,19.00
2022-08-31T08:57:34.475Z,19.10
2022-08-31T09:00:19.689Z,19.10
2022-08-31T09:02:55.865Z,19.20
2022-08-31T09:05:51.315Z,19.40
2022-08-31T09:08:42.191Z,19.50
2022-08-31T09:11:26.128Z,19.60
2022-08-31T09:13:58.820Z,19.70
2022-08-31T09:16:44.594Z,19.90
2022-08-31T09:19:17.301Z,20.10
2022-08-31T09:21:57.177Z,20.40
2022-08-31T09:24:27.413Z,20.60
2022-08-31T09:27:45.709Z,21.00
2022-08-31T09:30:31.631Z,21.50
2022-08-31T09:32:58.411Z,21.80
2022-08-31T09:35:40.235Z,22.20
2022-08-31T09:38:15.137Z,22.50
2022-08-31T09:40:48.439Z,22.80
2022-08-31T09:43:25.233Z,23.00
2022-08-31T09:46:07.175Z,23.20
2022-08-31T09:48:58.348Z,23.40
2022-08-31T09:51:33.646Z,23.60
2022-08-31T09:54:35.574Z,23.90
2022-08-31T09:57:08.926Z,24.20
2022-08-31T09:59:48.283Z,24.40
2022-08-31T10:02:24.392Z,24.40
2022-08-31T10:04:57.389Z,24.60
2022-08-31T10:07:47.844Z,24.90
2022-08-31T10:10:31.427Z,25.20
2022-08-31T10:13:01.517Z,25.30
2022-08-31T10:15:35.363Z,25.50
2022-08-31T10:18:39.366Z,25.80
2022-08-31T10:21:21.186Z,25.90
2022-08-31T10:23:56.357Z,26.20
2022-08-31T10:26:36.825Z,26.30
2022-08-31T10:29:10.010Z,26.50
2022-08-31T10:31:45.293Z,26.40
2022-08-31T10:34:45.456Z,26.30
2022-08-31T10:37:36.572Z,26.50
2022-08-31T10:40:11.159Z,26.70
2022-08-31T10:42:52.972Z,26.60
2022-08-31T10:45:24.606Z,26.70
2022-08-31T10:47:55.825Z,26.80
2022-08-31T10:50:35.503Z,27.30
2022-08-31T10:53:39.901Z,27.30
2022-08-31T10:56:25.389Z,26.90
2022-08-31T10:59:11.979Z,26.70
2022-08-31T11:01:54.992Z,26.10
2022-08-31T11:04:35.012Z,26.10
2022-08-31T11:07:17.460Z,25.80
2022-08-31T11:10:10.429Z,25.70
2022-08-31T11:12:42.704Z,25.70
2022-08-31T11:15:45.039Z,25.80
2022-08-31T11:18:26.519Z,25.90
2022-08-31T11:21:07.806Z,26.10
2022-08-31T11:23:49.895Z,26.20
2022-08-31T11:26:38.932Z,26.40
2022-08-31T11:29:32.528Z,26.50
2022-08-31T11:32:17.103Z,26.70
2022-08-31T11:34:53.381Z,26.70
2022-08-31T11:37:52.656Z,26.50
2022-08-31T11:40:44.141Z,26.50
2022-08-31T11:43:29.379Z,26.80
2022-08-31T11:45:56.252Z,26.90
2022-08-31T11:48:51.374Z,26.70
2022-08-31T11:51:40.862Z,26.50
2022-08-31T11:54:41.416Z,26.00
2022-08-31T11:57:15.623Z,25.70
2022-08-31T11:59:48.141Z,25.70
2022-08-31T12:02:21.754Z,25.60
2022-08-31T12:05:03.020Z,25.50
2022-08-31T12:07:31.273Z,25.60
2022-08-31T12:10:16.663Z,25.60
2022-08-31T12:12:46.153Z,25.50
2022-08-31T12:15:35.241Z,25.30
2022-08-31T12:18:30.867Z,25.10
2022-08-31T12:21:28.084Z,24.70
2022-08-31T12:24:19.157Z,24.50
2022-08-31T12:26:54.919Z,24.30
2022-08-31T12:29:28.351Z,24.30
2022-08-31T12:32:17.906Z,24.40
2022-08-31T12:35:04.799Z,24.70
2022-08-31T12:37:36.979Z,24.90
2022-08-31T12:40:24.818Z,25.00
2022-08-31T12:43:21.002Z,25.10
2022-08-31T12:46:16.743Z,25.20
2022-08-31T12:49:07.834Z,25.30
2022-08-31T12:51:52.668Z,25.50
2022-08-31T12:54:57.232Z,25.60
2022-08-31T12:57:54.987Z,25.70
2022-08-31T13:00:28.967Z,25.70
2022-08-31T13:03:25.226Z,25.60
2022-08-31T13:06:13.369Z,25.60
2022-08-31T13:08:46.798Z,25.50
2022-08-31T13:11:35.474Z,25.50
2022-08-31T13:14:12.856Z,25.60
2022-08-31T13:16:46.131Z,25.60
2022-08-31T13:19:34.608Z,25.70
2022-08-31T13:22:05.915Z,25.70
2022-08-31T13:24:41.031Z,25.80
2022-08-31T13:27:21.215Z,25.80
2022-08-31T13:29:49.659Z,25.70
2022-08-31T13:32:32.689Z,25.80
2022-08-31T13:35:11.047Z,25.80
2022-08-31T13:37:45.381Z,25.80
2022-08-31T13:40:17.269Z,25.90
2022-08-31T13:42:46.795Z,25.90
2022-08-31T13:45:32.284Z,25.80
2022-08-31T13:48:06.232Z,25.60
2022-08-31T13:50:52.646Z,25.60
2022-08-31T13:53:44.898Z,25.60
2022-08-31T13:56:46.596Z,25.70
2022-08-31T13:59:41.054Z,25.50
2022-08-31T14:02:19.371Z,25.60
2022-08-31T14:05:03.467Z,25.60
2022-08-31T14:07:39.311Z,25.50
2022-08-31T14:10:19.207Z,25.50
2022-08-31T14:13:03.471Z,25.40
2022-08-31T14:15:38.786Z,25.30
2022-08-31T14:18:32.974Z,25.30
2022-08-31T14:21:20.168Z,25.30
2022-08-31T14:24:05.147Z,25.40
2022-08-31T14:26:39.170Z,25.50
2022-08-31T14:29:10.382Z,25.50
2022-08-31T14:31:53.521Z,25.50
2022-08-31T14:34:30.192Z,25.50
2022-08-31T14:37:08.591Z,25.50
2022-08-31T14:40:07.549Z,25.60
2022-08-31T14:42:37.219Z,25.60
2022-08-31T14:45:21.344Z,25.50
2022-08-31T14:47:52.228Z,25.40
2022-08-31T14:50:23.316Z,25.40
2022-08-31T14:52:55.376Z,25.50
2022-08-31T14:55:24.681Z,25.50
2022-08-31T14:58:01.964Z,25.50
2022-08-31T15:00:31.842Z,25.40
2022-08-31T15:03:01.177Z,25.30
2022-08-31T15:05:28.003Z,25.30
2022-08-31T15:07:55.410Z,25.30
2022-08-31T15:10:25.662Z,25.20
2022-08-31T15:12:53.484Z,25.30
2022-08-31T15:15:20.778Z,25.30
2022-08-31T15:17:50.229Z,25.30
2022-08-31T15:20:19.519Z,25.20
2022-08-31T15:22:46.979Z,25.30
2022-08-31T15:25:15.097Z,25.30
2022-08-31T15:27:44.102Z,25.20
2022-08-31T15:30:18.773Z,25.10
2022-08-31T15:32:48.098Z,25.10
2022-08-31T15:35:19.177Z,25.00
2022-08-31T15:37:58.674Z,24.90
2022-08-31T15:40:29.085Z,24.70
2022-08-31T15:42:56.671Z,24.60
2022-08-31T15:45:25.217Z,24.70
2022-08-31T15:48:10.515Z,24.70
2022-08-31T15:50:37.226Z,24.80
2022-08-31T15:53:09.891Z,24.80
2022-08-31T15:55:40.133Z,24.90
2022-08-31T15:58:08.302Z,24.90
2022-08-31T16:00:36.056Z,24.90
2022-08-31T16:03:03.650Z,24.80
2022-08-31T16:05:39.023Z,24.80
2022-08-31T16:08:08.486Z,24.70
2022-08-31T16:10:37.557Z,24.60
2022-08-31T16:13:07.284Z,24.50
2022-08-31T16:15:34.442Z,24.50
2022-08-31T16:18:03.153Z,24.50
2022-08-31T16:20:29.999Z,24.40
2022-08-31T16:22:58.689Z,24.40
2022-08-31T16:25:29.283Z,24.50
2022-08-31T16:27:58.094Z,24.40
2022-08-31T16:30:24.736Z,24.40
2022-08-31T16:32:52.394Z,24.40
2022-08-31T16:35:19.456Z,24.40
2022-08-31T16:37:46.226Z,24.30
2022-08-31T16:40:13.952Z,24.20
2022-08-31T16:42:43.067Z,24.20
2022-08-31T16:45:11.474Z,24.20
2022-08-31T16:47:38.398Z,24.10
2022-08-31T16:50:08.600Z,24.00
2022-08-31T16:52:35.859Z,23.90
2022-08-31T16:55:02.783Z,23.90
2022-08-31T16:57:32.591Z,23.90
2022-08-31T17:00:00.220Z,23.80
2022-08-31T17:02:27.811Z,23.80
2022-08-31T17:04:56.408Z,23.80
2022-08-31T17:07:24.773Z,23.80
2022-08-31T17:09:56.667Z,23.70
2022-08-31T17:12:25.839Z,23.70
2022-08-31T17:14:53.022Z,23.70
2022-08-31T17:17:25.339Z,23.60
2022-08-31T17:19:54.623Z,23.60
2022-08-31T17:22:29.874Z,23.60
2022-08-31T17:25:01.167Z,23.50
2022-08-31T17:27:28.083Z,23.40
2022-08-31T17:29:56.017Z,23.30
2022-08-31T17:32:28.330Z,23.30
2022-08-31T17:34:55.904Z,23.20
2022-08-31T17:37:32.483Z,23.30
2022-08-31T17:40:00.150Z,23.20
2022-08-31T17:42:28.575Z,23.10
2022-08-31T17:44:56.684Z,23.00
2022-08-31T17:47:25.813Z,22.90
2022-08-31T17:49:52.691Z,22.80
2022-08-31T17:52:21.339Z,22.80
2022-08-31T17:54:50.658Z,22.70
2022-08-31T17:57:18.989Z,22.60
2022-08-31T17:59:51.158Z,22.60
2022-08-31T18:02:21.647Z,22.50
2022-08-31T18:04:49.199Z,22.40
2022-08-31T18:07:16.271Z,22.30
2022-08-31T18:09:45.562Z,22.20
2022-08-31T18:12:14.549Z,22.20
2022-08-31T18:14:41.827Z,22.20
2022-08-31T18:17:10.605Z,22.10
2022-08-31T18:19:38.180Z,22.00
2022-08-31T18:22:05.288Z,21.90
2022-08-31T18:24:35.565Z,21.80
2022-08-31T18:27:06.688Z,21.70
2022-08-31T18:29:35.070Z,21.60
2022-08-31T18:32:04.079Z,21.60
2022-08-31T18:34:33.906Z,21.50
2022-08-31T18:37:01.663Z,21.40
2022-08-31T18:39:51.715Z,21.30
2022-08-31T18:42:38.218Z,21.20
2022-08-31T18:45:20.905Z,21.10
2022-08-31T18:48:20.894Z,21.10
2022-08-31T18:50:47.383Z,21.00
2022-08-31T18:53:28.587Z,20.90
2022-08-31T18:56:17.808Z,20.80
2022-08-31T18:58:44.577Z,20.80
2022-08-31T19:01:13.238Z,20.70
2022-08-31T19:03:40.909Z,20.60
2022-08-31T19:06:08.125Z,20.50
2022-08-31T19:08:35.031Z,20.40
2022-08-31T19:11:06.957Z,20.40
2022-08-31T19:13:34.403Z,20.30
2022-08-31T19:16:10.764Z,20.30
2022-08-31T19:18:41.743Z,20.20
2022-08-31T19:21:14.241Z,20.10
2022-08-31T19:23:40.901Z,20.10
2022-08-31T19:26:07.998Z,20.00
2022-08-31T19:28:34.812Z,20.00
2022-08-31T19:31:01.630Z,19.90
2022-08-31T19:33:28.403Z,19.80
2022-08-31T19:36:04.551Z,19.80
2022-08-31T19:38:31.624Z,19.80
2022-08-31T19:41:00.602Z,19.70
2022-08-31T19:43:49.030Z,19.60
2022-08-31T19:46:18.307Z,19.50
2022-08-31T19:48:46.267Z,19.50
2022-08-31T19:51:20.519Z,19.50
2022-08-31T19:53:49.712Z,19.40
2022-08-31T19:56:22.965Z,19.30
2022-08-31T19:58:52.932Z,19.30
2022-08-31T20:01:25.755Z,19.30
2022-08-31T20:03:54.933Z,19.20
2022-08-31T20:06:25.180Z,19.20
2022-08-31T20:08:53.239Z,19.00
2022-08-31T20:11:23.504Z,19.00
2022-08-31T20:13:51.172Z,18.90
2022-08-31T20:16:19.045Z,18.90
2022-08-31T20:18:48.826Z,18.90
2022-08-31T20:21:18.835Z,18.90
2022-08-31T20:23:50.452Z,18.90
2022-08-31T20:26:23.270Z,18.80
2022-08-31T20:29:00.099Z,18.80
2022-08-31T20:31:27.665Z,18.70
2022-08-31T20:33:59.815Z,18.60
2022-08-31T20:36:27.820Z,18.60
2022-08-31T20:38:59.978Z,18.50
2022-08-31T20:41:28.464Z,18.50
2022-08-31T20:43:56.755Z,18.40
2022-08-31T20:46:42.183Z,18.40
2022-08-31T20:49:25.687Z,18.30
2022-08-31T20:51:56.971Z,18.30
2022-08-31T20:54:25.236Z,18.10
2022-08-31T20:56:54.425Z,18.10
2022-08-31T20:59:24.975Z,18.10
2022-08-31T21:01:55.062Z,18.00
2022-08-31T21:04:23.034Z,18.00
2022-08-31T21:06:52.158Z,18.00
2022-08-31T21:09:20.849Z,18.00
2022-08-31T21:11:48.606Z,17.90
2022-08-31T21:14:18.247Z,17.90
2022-08-31T21:16:44.995Z,17.80
2022-08-31T21:19:16.884Z,17.80
2022-08-31T21:21:46.177Z,17.80
2022-08-31T21:24:16.987Z,17.70
2022-08-31T21:26:44.720Z,17.70
2022-08-31T21:29:14.501Z,17.70
2022-08-31T21:31:49.002Z,17.60
2022-08-31T21:34:23.128Z,17.60
2022-08-31T21:36:50.349Z,17.60
2022-08-31T21:39:21.169Z,17.60
2022-08-31T21:41:48.884Z,17.60
2022-08-31T21:44:18.155Z,17.50
2022-08-31T21:46:48.393Z,17.50
2022-08-31T21:49:17.851Z,17.50
2022-08-31T21:51:49.616Z,17.40
2022-08-31T21:54:19.032Z,17.40
2022-08-31T21:56:51.870Z,17.40
2022-08-31T21:59:20.617Z,17.40
2022-08-31T22:01:49.308Z,17.30
2022-08-31T22:04:16.406Z,17.30
2022-08-31T22:06:43.566Z,17.30
2022-08-31T22:09:15.704Z,17.20
2022-08-31T22:11:45.584Z,17.20
2022-08-31T22:14:15.992Z,17.20
2022-08-31T22:16:46.379Z,17.10
2022-08-31T22:19:15.332Z,17.10
2022-08-31T22:21:45.475Z,17.10
2022-08-31T22:24:26.827Z,17.10
2022-08-31T22:26:55.975Z,17.10
2022-08-31T22:29:24.522Z,17.00
2022-08-31T22:31:53.543Z,17.00
2022-08-31T22:34:21.340Z,17.00
2022-08-31T22:36:52.263Z,16.90
2022-08-31T22:39:22.267Z,17.00
2022-08-31T22:41:50.064Z,16.90
2022-08-31T22:44:19.731Z,16.90
2022-08-31T22:46:47.008Z,16.90
2022-08-31T22:49:14.968Z,16.90
2022-08-31T22:51:43.109Z,16.80
2022-08-31T22:54:10.708Z,16.80
2022-08-31T22:56:39.059Z,16.70
2022-08-31T22:59:12.262Z,16.70
2022-08-31T23:01:52.898Z,16.70
2022-08-31T23:04:20.653Z,16.60
2022-08-31T23:06:49.564Z,16.60
2022-08-31T23:09:20.785Z,16.60
2022-08-31T23:11:48.765Z,16.60
2022-08-31T23:14:15.472Z,16.60
2022-08-31T23:16:47.559Z,16.50
2022-08-31T23:19:18.223Z,16.50
2022-08-31T23:21:52.645Z,16.40
2022-08-31T23:24:29.974Z,16.40
2022-08-31T23:27:03.051Z,16.40
2022-08-31T23:29:32.420Z,16.40
2022-08-31T23:32:00.830Z,16.30
2022-08-31T23:34:27.497Z,16.30
2022-08-31T23:36:55.180Z,16.20
2022-08-31T23:39:25.329Z,16.20
2022-08-31T23:41:53.153Z,16.20
2022-08-31T23:44:21.443Z,16.10
2022-08-31T23:46:49.160Z,16.10
2022-08-31T23:49:19.099Z,16.10
2022-08-31T23:51:46.481Z,16.00
2022-08-31T23:54:16.172Z,16.00
2022-08-31T23:56:45.883Z,15.90
2022-08-31T23:59:19.755Z,15.90
